Terminal Aerodrome Forecast
Issued by NWS

Home | Current Version | Previous Version | Text Only | Print | Product List | Glossary On
Versions: 1 2 3 4 5 6 7 8 9 10 11 12 13 14 15 16 17 18 19 20 21 22 23 24 25 26 27
000
FTUS41 KOKX 211400 AAB
TAFTEB
TAF AMD
KTEB 211450Z 2115/2212 31004KT 4SM BR OVC007
      TEMPO 2116/2117 BKN015
     FM211700 16004KT 6SM HZ BKN025
     FM211900 18004KT P6SM BKN035
     FM212100 VRB05KT P6SM SCT035 SCT250
     FM220100 27005KT P6SM SCT030 BKN250
     FM220500 29008KT P6SM SCT030=

USA.gov is the U.S. government's official web portal to all federal, state and local government web resources and services.